createdAt,value
2022-09-03T00:01:42.574Z,1.80
2022-09-03T00:04:38.271Z,1.73
2022-09-03T00:07:08.394Z,1.58
2022-09-03T00:09:39.133Z,1.67
2022-09-03T00:12:10.321Z,1.65
2022-09-03T00:14:45.761Z,2.22
2022-09-03T00:17:16.546Z,1.77
2022-09-03T00:19:55.302Z,1.83
2022-09-03T00:22:27.433Z,1.70
2022-09-03T00:24:54.206Z,1.75
2022-09-03T00:27:22.502Z,1.80
2022-09-03T00:29:51.657Z,1.50
2022-09-03T00:32:41.221Z,1.92
2022-09-03T00:35:11.238Z,1.95
2022-09-03T00:37:38.253Z,1.83
2022-09-03T00:40:05.505Z,1.55
2022-09-03T00:42:39.951Z,2.42
2022-09-03T00:45:24.542Z,1.80
2022-09-03T00:47:54.830Z,1.98
2022-09-03T00:50:36.953Z,2.00
2022-09-03T00:53:03.759Z,2.08
2022-09-03T00:55:36.103Z,1.90
2022-09-03T00:58:21.296Z,1.85
2022-09-03T01:00:48.385Z,1.92
2022-09-03T01:03:20.175Z,1.90
2022-09-03T01:05:46.424Z,1.88
2022-09-03T01:08:32.249Z,1.77
2022-09-03T01:11:01.595Z,1.98
2022-09-03T01:13:33.614Z,1.73
2022-09-03T01:16:09.098Z,1.90
2022-09-03T01:18:40.989Z,1.90
2022-09-03T01:21:19.528Z,1.80
2022-09-03T01:23:54.851Z,2.05
2022-09-03T01:26:39.981Z,1.70
2022-09-03T01:29:11.834Z,2.10
2022-09-03T01:31:58.346Z,1.90
2022-09-03T01:34:43.310Z,1.88
2022-09-03T01:37:20.372Z,1.85
2022-09-03T01:39:46.701Z,1.95
2022-09-03T01:42:23.626Z,1.98
2022-09-03T01:45:01.740Z,1.85
2022-09-03T01:47:53.232Z,1.75
2022-09-03T01:50:35.934Z,1.65
2022-09-03T01:53:10.392Z,1.55
2022-09-03T01:55:56.562Z,1.80
2022-09-03T01:58:28.425Z,1.55
2022-09-03T02:00:59.054Z,1.90
2022-09-03T02:03:27.099Z,2.15
2022-09-03T02:05:53.348Z,1.70
2022-09-03T02:08:20.314Z,1.70
2022-09-03T02:10:52.010Z,1.77
2022-09-03T02:13:19.919Z,1.63
2022-09-03T02:15:47.423Z,1.52
2022-09-03T02:18:17.083Z,1.42
2022-09-03T02:20:43.437Z,1.58
2022-09-03T02:23:09.744Z,2.03
2022-09-03T02:25:38.280Z,1.70
2022-09-03T02:28:06.334Z,1.80
2022-09-03T02:30:43.220Z,1.80
2022-09-03T02:33:09.992Z,1.98
2022-09-03T02:35:36.326Z,1.92
2022-09-03T02:38:19.570Z,1.90
2022-09-03T02:40:46.298Z,1.77
2022-09-03T02:43:20.238Z,1.50
2022-09-03T02:45:52.511Z,1.50
2022-09-03T02:48:21.492Z,1.90
2022-09-03T02:50:47.897Z,1.55
2022-09-03T02:53:14.563Z,1.80
2022-09-03T02:55:40.935Z,1.83
2022-09-03T02:58:08.834Z,1.70
2022-09-03T03:00:36.048Z,1.60
2022-09-03T03:03:03.051Z,1.60
2022-09-03T03:05:39.494Z,1.83
2022-09-03T03:08:05.779Z,1.70
2022-09-03T03:10:32.028Z,1.60
2022-09-03T03:12:58.568Z,1.80
2022-09-03T03:15:24.855Z,1.52
2022-09-03T03:17:51.106Z,1.50
2022-09-03T03:20:17.331Z,1.40
2022-09-03T03:22:43.580Z,1.80
2022-09-03T03:25:09.830Z,1.60
2022-09-03T03:27:42.172Z,1.58
2022-09-03T03:30:10.139Z,1.40
2022-09-03T03:32:36.874Z,1.42
2022-09-03T03:35:03.528Z,1.83
2022-09-03T03:37:30.245Z,1.50
2022-09-03T03:39:56.614Z,1.70
2022-09-03T03:42:22.904Z,1.50
2022-09-03T03:44:49.163Z,1.50
2022-09-03T03:47:16.901Z,1.58
2022-09-03T03:49:43.960Z,1.40
2022-09-03T03:52:10.206Z,1.48
2022-09-03T03:54:36.458Z,1.50
2022-09-03T03:57:02.971Z,1.40
2022-09-03T03:59:29.204Z,1.35
2022-09-03T04:01:55.512Z,1.27
2022-09-03T04:04:21.814Z,1.55
2022-09-03T04:06:48.130Z,1.60
2022-09-03T04:09:14.351Z,1.30
2022-09-03T04:11:40.736Z,1.30
2022-09-03T04:14:06.962Z,1.25
2022-09-03T04:16:33.282Z,1.67
2022-09-03T04:18:59.595Z,1.35
2022-09-03T04:21:28.457Z,1.55
2022-09-03T04:23:55.613Z,1.60
2022-09-03T04:26:23.511Z,1.35
2022-09-03T04:28:50.073Z,1.30
2022-09-03T04:31:18.134Z,1.58
2022-09-03T04:33:44.689Z,1.55
2022-09-03T04:36:12.270Z,1.60
2022-09-03T04:38:39.944Z,1.30
2022-09-03T04:41:07.419Z,1.40
2022-09-03T04:43:33.712Z,1.38
2022-09-03T04:46:00.818Z,1.42
2022-09-03T04:48:27.969Z,1.80
2022-09-03T04:50:55.011Z,1.50
2022-09-03T04:53:22.653Z,1.58
2022-09-03T04:55:49.126Z,1.60
2022-09-03T04:58:15.470Z,1.35
2022-09-03T05:00:41.821Z,1.48
2022-09-03T05:03:08.084Z,1.70
2022-09-03T05:05:34.372Z,1.33
2022-09-03T05:08:01.774Z,1.55
2022-09-03T05:10:28.065Z,1.38
2022-09-03T05:13:04.560Z,1.20
2022-09-03T05:15:31.807Z,1.48
2022-09-03T05:17:59.231Z,1.70
2022-09-03T05:20:25.902Z,1.75
2022-09-03T05:22:52.360Z,1.60
2022-09-03T05:25:18.951Z,1.70
2022-09-03T05:27:46.210Z,1.40
2022-09-03T05:30:12.761Z,1.30
2022-09-03T05:32:38.990Z,1.40
2022-09-03T05:35:05.615Z,1.60
2022-09-03T05:37:31.838Z,1.50
2022-09-03T05:39:58.120Z,1.30
2022-09-03T05:42:24.361Z,1.73
2022-09-03T05:44:51.224Z,1.50
2022-09-03T05:47:17.471Z,1.52
2022-09-03T05:49:43.709Z,1.50
2022-09-03T05:52:09.994Z,1.38
2022-09-03T05:54:36.258Z,1.48
2022-09-03T05:57:02.555Z,1.40
2022-09-03T05:59:28.804Z,1.40
2022-09-03T06:01:59.365Z,1.30
2022-09-03T06:04:26.456Z,1.42
2022-09-03T06:06:52.955Z,1.40
2022-09-03T06:09:20.197Z,1.55
2022-09-03T06:11:46.994Z,1.30
2022-09-03T06:14:14.095Z,1.58
2022-09-03T06:16:41.456Z,1.50
2022-09-03T06:19:09.579Z,1.67
2022-09-03T06:21:36.550Z,1.52
2022-09-03T06:24:03.083Z,1.50
2022-09-03T06:26:29.761Z,1.60
2022-09-03T06:28:57.257Z,1.60
2022-09-03T06:31:24.487Z,1.48
2022-09-03T06:33:51.805Z,1.70
2022-09-03T06:36:18.743Z,1.63
2022-09-03T06:38:45.766Z,1.85
2022-09-03T06:41:23.792Z,1.63
2022-09-03T06:43:51.090Z,1.40
2022-09-03T06:46:18.521Z,1.55
2022-09-03T06:48:45.870Z,1.70
2022-09-03T06:51:12.066Z,1.60
2022-09-03T06:53:39.441Z,1.35
2022-09-03T06:56:07.747Z,1.65
2022-09-03T06:58:38.529Z,1.90
2022-09-03T07:01:08.840Z,1.40
2022-09-03T07:03:35.711Z,1.52
2022-09-03T07:06:09.304Z,1.60
2022-09-03T07:08:35.809Z,1.92
2022-09-03T07:11:07.024Z,1.60
2022-09-03T07:13:33.530Z,1.58
2022-09-03T07:16:01.142Z,1.60
2022-09-03T07:18:27.559Z,1.75
2022-09-03T07:20:57.646Z,1.60
2022-09-03T07:23:23.979Z,1.60
2022-09-03T07:25:54.621Z,1.80
2022-09-03T07:28:21.284Z,1.30
2022-09-03T07:30:47.540Z,1.60
2022-09-03T07:33:14.019Z,1.63
2022-09-03T07:35:40.370Z,1.63
2022-09-03T07:38:06.658Z,1.40
2022-09-03T07:40:33.155Z,1.40
2022-09-03T07:43:03.341Z,1.33
2022-09-03T07:45:29.914Z,1.48
2022-09-03T07:47:56.481Z,1.45
2022-09-03T07:50:23.058Z,1.15
2022-09-03T07:52:49.432Z,1.40
2022-09-03T07:55:15.750Z,1.40
2022-09-03T07:57:42.089Z,1.45
2022-09-03T08:00:09.016Z,1.30
2022-09-03T08:02:35.323Z,1.60
2022-09-03T08:05:01.583Z,1.30
2022-09-03T08:07:30.846Z,1.60
2022-09-03T08:09:57.308Z,1.40
2022-09-03T08:12:24.042Z,1.65
2022-09-03T08:14:50.316Z,1.50
2022-09-03T08:17:16.547Z,1.27
2022-09-03T08:19:43.610Z,1.70
2022-09-03T08:22:10.572Z,1.40
2022-09-03T08:24:36.943Z,1.58
2022-09-03T08:27:03.592Z,1.30
2022-09-03T08:29:29.842Z,1.60
2022-09-03T08:31:56.192Z,1.60
2022-09-03T08:34:22.577Z,1.40
2022-09-03T08:36:50.216Z,1.50
2022-09-03T08:39:16.646Z,1.60
2022-09-03T08:42:01.996Z,1.50
2022-09-03T08:44:30.301Z,1.77
2022-09-03T08:47:08.558Z,1.60
2022-09-03T08:49:44.442Z,1.40
2022-09-03T08:52:37.184Z,1.88
2022-09-03T08:55:14.012Z,1.95
2022-09-03T08:57:43.371Z,1.70
2022-09-03T09:00:09.835Z,2.30
2022-09-03T09:02:45.040Z,2.22
2022-09-03T09:05:21.972Z,2.35
2022-09-03T09:08:04.600Z,1.90
2022-09-03T09:10:37.734Z,1.70
2022-09-03T09:13:22.559Z,1.70
2022-09-03T09:16:10.418Z,1.92
2022-09-03T09:18:47.883Z,2.15
2022-09-03T09:21:23.351Z,1.70
2022-09-03T09:23:51.552Z,1.63
2022-09-03T09:26:19.012Z,1.80
2022-09-03T09:28:46.172Z,1.50
2022-09-03T09:31:18.966Z,1.67
2022-09-03T09:33:46.147Z,1.55
2022-09-03T09:36:15.427Z,1.80
2022-09-03T09:38:42.000Z,1.60
2022-09-03T09:41:12.817Z,1.63
2022-09-03T09:43:39.187Z,1.90
2022-09-03T09:46:19.687Z,1.70
2022-09-03T09:48:50.826Z,1.63
2022-09-03T09:51:22.378Z,1.70
2022-09-03T09:53:49.070Z,2.22
2022-09-03T09:56:25.372Z,2.17
2022-09-03T09:59:02.027Z,2.10
2022-09-03T10:01:30.317Z,2.28
2022-09-03T10:03:57.560Z,2.17
2022-09-03T10:06:47.906Z,1.90
2022-09-03T10:09:18.344Z,1.90
2022-09-03T10:11:47.434Z,2.13
2022-09-03T10:14:19.180Z,1.60
2022-09-03T10:16:48.836Z,1.98
2022-09-03T10:19:17.131Z,1.80
2022-09-03T10:21:43.459Z,2.30
2022-09-03T10:24:39.460Z,2.05
2022-09-03T10:27:12.576Z,2.03
2022-09-03T10:29:40.695Z,1.98
2022-09-03T10:32:13.783Z,2.03
2022-09-03T10:35:02.739Z,1.80
2022-09-03T10:37:41.156Z,1.92
2022-09-03T10:40:10.492Z,1.90
2022-09-03T10:42:37.298Z,1.92
2022-09-03T10:45:22.407Z,1.92
2022-09-03T10:48:04.281Z,1.90
2022-09-03T10:50:36.286Z,1.92
2022-09-03T10:53:08.827Z,1.80
2022-09-03T10:55:41.444Z,1.70
2022-09-03T10:58:11.586Z,1.80
2022-09-03T11:00:41.456Z,1.73
2022-09-03T11:03:21.178Z,1.83
2022-09-03T11:06:01.128Z,1.92
2022-09-03T11:08:30.266Z,1.80
2022-09-03T11:11:00.057Z,1.90
2022-09-03T11:13:35.682Z,1.75
2022-09-03T11:16:05.055Z,1.80
2022-09-03T11:18:35.886Z,2.00
2022-09-03T11:21:07.757Z,2.08
2022-09-03T11:23:37.336Z,1.90
2022-09-03T11:26:07.100Z,2.60
2022-09-03T11:28:42.040Z,1.70
2022-09-03T11:31:13.451Z,2.47
2022-09-03T11:33:43.885Z,1.85
2022-09-03T11:36:10.664Z,2.30
2022-09-03T11:38:38.950Z,2.00
2022-09-03T11:41:14.377Z,2.25
2022-09-03T11:43:41.522Z,2.55
2022-09-03T11:46:26.908Z,2.28
2022-09-03T11:48:55.421Z,2.42
2022-09-03T11:51:30.566Z,2.50
2022-09-03T11:53:58.457Z,2.50
2022-09-03T11:56:24.954Z,2.80
2022-09-03T11:59:06.107Z,2.13
2022-09-03T12:01:33.224Z,2.05
2022-09-03T12:03:59.478Z,2.40
2022-09-03T12:06:44.390Z,2.15
2022-09-03T12:09:29.515Z,2.03
2022-09-03T12:12:05.943Z,2.38
2022-09-03T12:14:50.776Z,2.33
2022-09-03T12:17:32.307Z,2.50
2022-09-03T12:19:59.179Z,2.35
2022-09-03T12:22:28.695Z,2.95
2022-09-03T12:24:55.225Z,2.30
2022-09-03T12:27:24.638Z,2.85
2022-09-03T12:30:00.950Z,2.40
2022-09-03T12:32:30.094Z,2.33
2022-09-03T12:34:56.510Z,2.75
2022-09-03T12:40:21.552Z,2.50
2022-09-03T12:42:47.942Z,2.30
2022-09-03T12:45:19.605Z,2.53
2022-09-03T12:47:45.970Z,2.53
2022-09-03T12:50:13.992Z,2.67
2022-09-03T12:52:48.136Z,2.67
2022-09-03T12:55:33.922Z,2.40
2022-09-03T12:58:19.176Z,2.20
2022-09-03T13:00:52.133Z,2.78
2022-09-03T13:03:21.286Z,2.78
2022-09-03T13:05:53.803Z,2.88
2022-09-03T13:08:27.968Z,2.95
2022-09-03T13:10:56.071Z,3.00
2022-09-03T13:13:30.058Z,2.95
2022-09-03T13:16:15.431Z,2.92
2022-09-03T13:19:02.334Z,2.90
2022-09-03T13:21:47.388Z,2.42
2022-09-03T13:24:19.723Z,2.85
2022-09-03T13:26:51.669Z,2.60
2022-09-03T13:29:57.286Z,2.40
2022-09-03T13:32:23.544Z,2.63
2022-09-03T13:34:54.418Z,2.78
2022-09-03T13:37:20.723Z,2.40
2022-09-03T13:39:51.008Z,2.90
2022-09-03T13:42:37.624Z,2.40
2022-09-03T13:45:22.934Z,2.60
2022-09-03T13:48:15.548Z,2.50
2022-09-03T13:50:57.719Z,2.58
2022-09-03T13:53:26.257Z,2.67
2022-09-03T13:55:54.971Z,2.38
2022-09-03T13:58:40.086Z,2.33
2022-09-03T14:01:21.662Z,2.47
2022-09-03T14:06:34.326Z,2.60
2022-09-03T14:09:19.493Z,3.03
2022-09-03T14:12:24.235Z,2.70
2022-09-03T14:14:53.656Z,2.50
2022-09-03T14:17:30.186Z,2.50
2022-09-03T14:20:06.374Z,2.40
2022-09-03T14:22:48.234Z,2.85
2022-09-03T14:25:19.311Z,2.30
2022-09-03T14:27:48.538Z,2.40
2022-09-03T14:30:26.975Z,2.28
2022-09-03T14:33:12.951Z,2.78
2022-09-03T14:35:59.502Z,2.65
2022-09-03T14:38:36.942Z,2.88
2022-09-03T14:41:05.773Z,2.47
2022-09-03T14:43:55.355Z,2.78
2022-09-03T14:46:47.730Z,2.67
2022-09-03T14:49:23.324Z,2.38
2022-09-03T14:51:57.875Z,2.13
2022-09-03T14:54:29.114Z,2.70
2022-09-03T14:59:21.535Z,2.22
2022-09-03T15:01:54.414Z,2.50
2022-09-03T15:04:20.670Z,2.60
2022-09-03T15:07:13.025Z,2.72
2022-09-03T15:09:51.610Z,2.47
2022-09-03T15:12:20.856Z,2.50
2022-09-03T15:14:52.867Z,2.50
2022-09-03T15:17:38.146Z,2.75
2022-09-03T15:20:19.612Z,2.60
2022-09-03T15:23:04.564Z,2.58
2022-09-03T15:25:49.388Z,2.63
2022-09-03T15:28:31.044Z,2.80
2022-09-03T15:31:20.679Z,2.42
2022-09-03T15:33:58.596Z,3.15
2022-09-03T15:36:27.284Z,2.50
2022-09-03T15:38:57.047Z,3.05
2022-09-03T15:41:27.718Z,2.63
2022-09-03T15:43:58.474Z,3.17
2022-09-03T15:46:47.886Z,3.65
2022-09-03T15:49:25.081Z,2.63
2022-09-03T15:52:06.790Z,2.53
2022-09-03T15:54:43.388Z,2.50
2022-09-03T15:57:16.585Z,2.45
2022-09-03T15:59:51.958Z,2.28
2022-09-03T16:02:20.836Z,3.00
2022-09-03T16:04:56.905Z,2.70
2022-09-03T16:07:23.922Z,2.42
2022-09-03T16:10:24.340Z,2.90
2022-09-03T16:13:04.651Z,3.20
2022-09-03T16:15:43.430Z,2.47
2022-09-03T16:18:27.027Z,2.55
2022-09-03T16:21:05.394Z,2.50
2022-09-03T16:23:36.103Z,2.53
2022-09-03T16:26:13.258Z,2.72
2022-09-03T16:28:42.438Z,2.65
2022-09-03T16:31:18.729Z,2.55
2022-09-03T16:34:03.838Z,2.80
2022-09-03T16:36:36.325Z,2.75
2022-09-03T16:39:09.005Z,3.00
2022-09-03T16:41:45.170Z,2.85
2022-09-03T16:44:17.251Z,2.53
2022-09-03T16:46:54.976Z,3.10
2022-09-03T16:49:37.457Z,2.70
2022-09-03T16:52:12.392Z,2.50
2022-09-03T16:54:44.938Z,2.70
2022-09-03T16:57:45.434Z,2.70
2022-09-03T17:00:16.082Z,3.20
2022-09-03T17:02:42.674Z,2.60
2022-09-03T17:05:14.687Z,3.10
2022-09-03T17:08:06.205Z,2.80
2022-09-03T17:10:48.819Z,2.87
2022-09-03T17:13:24.754Z,2.70
2022-09-03T17:16:02.281Z,3.10
2022-09-03T17:18:28.523Z,2.75
2022-09-03T17:21:08.888Z,2.85
2022-09-03T17:24:02.362Z,2.60
2022-09-03T17:26:35.551Z,2.65
2022-09-03T17:29:01.835Z,2.20
2022-09-03T17:31:44.265Z,2.13
2022-09-03T17:34:29.119Z,2.20
2022-09-03T17:37:02.334Z,2.00
2022-09-03T17:39:47.492Z,1.90
2022-09-03T17:42:20.399Z,2.45
2022-09-03T17:44:55.614Z,2.17
2022-09-03T17:47:24.676Z,2.38
2022-09-03T17:50:05.399Z,1.92
2022-09-03T17:52:39.076Z,2.20
2022-09-03T17:55:13.359Z,2.40
2022-09-03T17:57:47.830Z,2.20
2022-09-03T18:00:24.784Z,2.50
2022-09-03T18:03:05.666Z,2.60
2022-09-03T18:05:59.712Z,2.85
2022-09-03T18:08:41.731Z,3.05
2022-09-03T18:11:10.362Z,2.80
2022-09-03T18:13:43.524Z,2.50
2022-09-03T18:16:16.667Z,2.45
2022-09-03T18:18:46.214Z,2.40
2022-09-03T18:21:32.818Z,2.55
2022-09-03T18:24:29.572Z,2.40
2022-09-03T18:27:18.595Z,2.20
2022-09-03T18:30:17.410Z,2.17
2022-09-03T18:33:02.648Z,2.70
2022-09-03T18:35:48.785Z,2.28
2022-09-03T18:38:35.845Z,2.40
2022-09-03T18:41:20.648Z,2.63
2022-09-03T18:44:19.598Z,2.58
2022-09-03T18:48:02.987Z,2.50
2022-09-03T18:50:28.118Z,3.13
2022-09-03T18:53:20.560Z,3.00
2022-09-03T18:56:15.094Z,3.03
2022-09-03T18:59:03.335Z,2.67
2022-09-03T19:01:54.022Z,2.85
2022-09-03T19:04:43.322Z,3.13
2022-09-03T19:07:35.196Z,3.65
2022-09-03T19:10:26.521Z,3.20
2022-09-03T19:13:40.718Z,3.40
2022-09-03T19:16:35.396Z,3.33
2022-09-03T19:19:43.776Z,3.40
2022-09-03T19:22:29.354Z,3.08
2022-09-03T19:25:20.599Z,8.30
2022-09-03T19:28:21.614Z,3.80
2022-09-03T19:31:25.684Z,3.53
2022-09-03T19:34:29.623Z,3.53
2022-09-03T19:37:17.504Z,3.80
2022-09-03T19:40:02.546Z,3.33
2022-09-03T19:42:50.398Z,3.20
2022-09-03T19:45:44.424Z,2.95
2022-09-03T19:48:35.008Z,3.38
2022-09-03T19:51:25.948Z,4.30
2022-09-03T19:54:11.014Z,3.10
2022-09-03T19:56:57.288Z,3.47
2022-09-03T19:59:44.328Z,3.33
2022-09-03T20:02:29.455Z,3.17
2022-09-03T20:05:18.305Z,3.70
2022-09-03T20:08:04.032Z,3.22
2022-09-03T20:10:30.320Z,3.35
2022-09-03T20:13:17.130Z,2.97
2022-09-03T20:15:46.427Z,3.00
2022-09-03T20:18:22.013Z,2.72
2022-09-03T20:20:59.010Z,2.90
2022-09-03T20:23:43.561Z,2.83
2022-09-03T20:26:21.067Z,2.75
2022-09-03T20:29:00.886Z,3.08
2022-09-03T20:31:51.051Z,3.13
2022-09-03T20:34:36.158Z,2.80
2022-09-03T20:37:11.713Z,3.22
2022-09-03T20:39:45.986Z,3.38
2022-09-03T20:42:20.812Z,3.00
2022-09-03T20:44:47.070Z,3.28
2022-09-03T20:47:29.202Z,3.00
2022-09-03T20:50:09.953Z,3.67
2022-09-03T20:52:54.310Z,3.22
2022-09-03T20:55:33.626Z,3.40
2022-09-03T20:58:11.831Z,3.10
2022-09-03T21:00:49.292Z,3.50
2022-09-03T21:03:17.958Z,3.58
2022-09-03T21:05:58.018Z,3.55
2022-09-03T21:08:43.269Z,3.40
2022-09-03T21:11:29.121Z,3.70
2022-09-03T21:14:03.399Z,3.95
2022-09-03T21:16:30.409Z,3.63
2022-09-03T21:18:59.750Z,15.65
2022-09-03T21:21:38.738Z,3.90
2022-09-03T21:24:07.425Z,3.90
2022-09-03T21:26:39.736Z,3.83
2022-09-03T21:29:13.022Z,3.90
2022-09-03T21:32:03.084Z,3.28
2022-09-03T21:34:29.451Z,3.55
2022-09-03T21:36:55.835Z,3.75
2022-09-03T21:39:30.759Z,3.92
2022-09-03T21:42:07.139Z,3.60
2022-09-03T21:44:42.419Z,3.28
2022-09-03T21:47:16.388Z,3.47
2022-09-03T21:49:43.028Z,3.35
2022-09-03T21:52:12.893Z,3.33
2022-09-03T21:54:39.145Z,3.50
2022-09-03T21:57:05.348Z,3.22
2022-09-03T21:59:50.576Z,3.40
2022-09-03T22:02:29.994Z,3.88
2022-09-03T22:04:56.890Z,3.72
2022-09-03T22:07:28.980Z,3.40
2022-09-03T22:10:02.066Z,3.40
2022-09-03T22:12:35.664Z,3.78
2022-09-03T22:15:02.439Z,3.53
2022-09-03T22:17:28.628Z,3.05
2022-09-03T22:19:54.887Z,3.95
2022-09-03T22:22:32.450Z,3.58
2022-09-03T22:25:04.772Z,4.15
2022-09-03T22:27:55.487Z,3.90
2022-09-03T22:30:21.767Z,4.18
2022-09-03T22:33:06.353Z,3.78
2022-09-03T22:35:46.577Z,3.70
2022-09-03T22:38:31.641Z,3.70
2022-09-03T22:41:00.834Z,3.50
2022-09-03T22:43:35.523Z,3.72
2022-09-03T22:46:06.776Z,3.60
2022-09-03T22:48:42.705Z,3.58
2022-09-03T22:51:13.311Z,3.95
2022-09-03T22:53:42.646Z,3.70
2022-09-03T22:56:10.899Z,3.60
2022-09-03T22:58:41.580Z,4.38
2022-09-03T23:01:12.782Z,3.47
2022-09-03T23:03:42.197Z,3.33
2022-09-03T23:06:17.199Z,3.85
2022-09-03T23:08:46.807Z,3.75
2022-09-03T23:11:23.123Z,3.47
2022-09-03T23:13:51.515Z,3.10
2022-09-03T23:16:44.191Z,3.20
2022-09-03T23:24:12.545Z,3.40
2022-09-03T23:26:45.927Z,3.22
2022-09-03T23:29:15.904Z,4.07
2022-09-03T23:31:42.887Z,3.63
2022-09-03T23:34:10.045Z,3.60
2022-09-03T23:36:57.896Z,3.53
2022-09-03T23:39:41.685Z,3.85
2022-09-03T23:42:26.777Z,3.38
2022-09-03T23:45:07.436Z,3.78
2022-09-03T23:47:39.709Z,3.20
2022-09-03T23:50:09.165Z,3.67
2022-09-03T23:52:43.175Z,4.25
2022-09-03T23:55:18.363Z,4.25
2022-09-03T23:57:56.120Z,4.00
